Time;durP1;ratioP1;P1;durP2;ratioP2;P2;SDS_P1;SDS_P2;PMS_P1;PMS_P2;Temp;Humidity;BMP_temperature;BMP_pressure;BME280_temperature;BME280_humidity;BME280_pressure;Samples;Min_cycle;Max_cycle;Signal;HPM_P1;HPM_P2
2022/03/07 00:00:01;;;;;;;17.30;8.73;;;;;;;1.81;100.00;94393.25;5049810;28;20216;-74
2022/03/07 00:02:29;;;;;;;18.40;9.53;;;;;;;1.83;100.00;94398.19;5049024;28;20237;-74
2022/03/07 00:04:59;;;;;;;18.03;9.27;;;;;;;1.87;100.00;94400.25;5050005;28;20312;-74
2022/03/07 00:07:28;;;;;;;16.63;8.77;;;;;;;1.90;100.00;94399.13;5048836;28;20293;-74
2022/03/07 00:09:56;;;;;;;15.17;8.90;;;;;;;1.81;100.00;94384.78;5049495;28;20627;-76
2022/03/07 00:12:25;;;;;;;16.60;8.50;;;;;;;1.85;100.00;94402.19;5049026;28;20762;-76
2022/03/07 00:14:52;;;;;;;19.27;9.10;;;;;;;1.89;100.00;94403.44;5046525;28;20194;-76
2022/03/07 00:17:21;;;;;;;17.33;8.97;;;;;;;1.85;100.00;94391.94;5048979;28;20264;-76
2022/03/07 00:19:49;;;;;;;15.70;8.23;;;;;;;1.78;100.00;94390.25;5049750;28;20209;-76
2022/03/07 00:22:19;;;;;;;16.80;8.63;;;;;;;1.85;100.00;94391.16;5048778;28;20240;-75
2022/03/07 00:24:46;;;;;;;16.63;8.73;;;;;;;1.80;100.00;94381.41;5049130;28;20220;-75
2022/03/07 00:27:14;;;;;;;17.30;9.07;;;;;;;1.80;100.00;94386.53;5048999;28;20228;-76
2022/03/07 00:29:43;;;;;;;17.47;9.40;;;;;;;1.67;100.00;94373.53;5048889;28;20215;-75
2022/03/07 00:32:10;;;;;;;18.47;9.73;;;;;;;1.73;100.00;94383.09;5049072;28;20202;-76
2022/03/07 00:34:39;;;;;;;17.13;9.63;;;;;;;1.73;100.00;94371.06;5048764;28;20245;-76
2022/03/07 00:37:07;;;;;;;19.40;9.30;;;;;;;1.76;100.00;94371.69;5049389;28;20225;-75
2022/03/07 00:39:37;;;;;;;16.23;8.73;;;;;;;1.81;100.00;94374.53;5048393;28;20215;-76
2022/03/07 00:42:05;;;;;;;15.30;8.63;;;;;;;1.68;100.00;94373.34;5048832;28;20320;-75
2022/03/07 00:44:33;;;;;;;14.63;8.30;;;;;;;1.76;100.00;94377.59;5048497;28;20262;-74
2022/03/07 00:47:01;;;;;;;16.20;9.00;;;;;;;1.78;100.00;94374.88;5048483;28;20200;-74
2022/03/07 00:49:29;;;;;;;17.83;9.13;;;;;;;1.71;100.00;94372.19;5048275;28;20241;-74
2022/03/07 00:51:59;;;;;;;15.83;8.70;;;;;;;1.84;100.00;94369.88;5048878;28;20601;-74
2022/03/07 00:54:28;;;;;;;20.60;9.77;;;;;;;1.84;100.00;94369.06;5047757;28;20205;-74
2022/03/07 00:56:58;;;;;;;18.63;9.60;;;;;;;1.79;100.00;94374.69;5048947;28;20691;-75
2022/03/07 00:59:25;;;;;;;15.37;8.60;;;;;;;1.76;100.00;94382.72;5047803;28;20209;-75
2022/03/07 01:01:54;;;;;;;18.17;9.27;;;;;;;1.68;100.00;94378.47;5047834;28;20723;-75
2022/03/07 01:04:23;;;;;;;16.43;8.87;;;;;;;1.73;100.00;94382.28;5046528;28;20194;-74
2022/03/07 01:06:51;;;;;;;18.33;9.23;;;;;;;1.75;100.00;94376.00;5048411;28;20201;-75
2022/03/07 01:09:21;;;;;;;19.83;10.13;;;;;;;1.79;100.00;94379.03;5048012;28;20237;-75
2022/03/07 01:11:49;;;;;;;16.47;9.33;;;;;;;1.86;100.00;94369.69;5048510;28;20299;-75
2022/03/07 01:14:18;;;;;;;15.57;9.10;;;;;;;1.79;100.00;94361.88;5047849;28;20238;-75
2022/03/07 01:16:47;;;;;;;14.73;9.00;;;;;;;1.87;100.00;94348.22;5048050;28;20217;-75
2022/03/07 01:19:15;;;;;;;17.70;9.53;;;;;;;1.82;100.00;94345.41;5048322;28;20212;-75
2022/03/07 01:21:44;;;;;;;14.97;8.50;;;;;;;1.83;100.00;94349.53;5047675;28;20258;-75
2022/03/07 01:24:13;;;;;;;18.70;9.03;;;;;;;1.88;100.00;94353.16;5048094;28;20212;-74
2022/03/07 01:26:41;;;;;;;14.23;7.60;;;;;;;1.91;100.00;94357.94;5048037;28;20287;-74
2022/03/07 01:29:10;;;;;;;13.47;7.67;;;;;;;1.85;100.00;94357.88;5048284;28;20215;-74
2022/03/07 01:31:39;;;;;;;13.30;8.03;;;;;;;1.93;100.00;94348.34;5047960;28;20234;-74
2022/03/07 01:34:09;;;;;;;14.70;7.73;;;;;;;1.89;100.00;94356.53;5048373;28;20242;-74
2022/03/07 01:36:37;;;;;;;12.97;7.57;;;;;;;1.67;100.00;94338.44;5047364;28;20244;-76
2022/03/07 01:39:05;;;;;;;10.80;6.83;;;;;;;1.68;100.00;94350.28;5043871;28;20276;-74
2022/03/07 01:41:33;;;;;;;12.73;7.37;;;;;;;1.62;100.00;94350.16;5046681;28;20224;-75
2022/03/07 01:44:01;;;;;;;12.40;7.50;;;;;;;1.61;100.00;94348.59;5043206;28;20690;-75
2022/03/07 01:46:32;;;;;;;14.33;7.07;;;;;;;1.67;100.00;94345.34;5046175;28;20304;-75
2022/03/07 01:49:02;;;;;;;13.40;7.23;;;;;;;1.73;100.00;94342.88;5043014;28;20200;-75
2022/03/07 01:51:30;;;;;;;10.63;7.13;;;;;;;1.77;100.00;94348.47;5047361;28;20244;-76
2022/03/07 01:53:57;;;;;;;10.77;6.43;;;;;;;1.84;100.00;94344.25;5047821;28;20209;-75
2022/03/07 01:56:25;;;;;;;13.30;7.03;;;;;;;1.81;100.00;94331.00;5047485;28;20204;-75
2022/03/07 01:58:53;;;;;;;11.23;7.10;;;;;;;1.89;100.00;94341.97;5046422;28;20256;-75
2022/03/07 02:01:22;;;;;;;11.83;7.10;;;;;;;1.92;100.00;94338.25;5051836;28;20212;-75
2022/03/07 02:03:50;;;;;;;13.10;7.47;;;;;;;1.82;100.00;94347.97;5051932;28;20213;-74
2022/03/07 02:06:19;;;;;;;11.70;7.33;;;;;;;1.70;100.00;94345.78;5052071;28;20224;-75
2022/03/07 02:08:49;;;;;;;13.30;7.40;;;;;;;1.73;100.00;94341.31;5051987;28;20214;-75
2022/03/07 02:11:19;;;;;;;11.50;7.13;;;;;;;1.66;100.00;94336.06;5052071;28;20622;-74
2022/03/07 02:13:47;;;;;;;12.17;7.40;;;;;;;1.76;100.00;94335.84;5051722;28;20233;-74
2022/03/07 02:16:16;;;;;;;12.07;7.50;;;;;;;1.77;100.00;94335.66;5051538;28;20239;-76
2022/03/07 02:18:44;;;;;;;11.77;7.70;;;;;;;1.65;100.00;94337.81;5051165;28;20200;-75
2022/03/07 02:21:14;;;;;;;10.53;6.93;;;;;;;1.69;100.00;94341.66;5052218;28;20285;-76
2022/03/07 02:23:46;;;;;;;12.30;6.83;;;;;;;1.44;100.00;94332.56;5050768;28;20201;-75
2022/03/07 02:26:16;;;;;;;15.27;7.97;;;;;;;1.46;100.00;94348.53;5051786;28;20223;-76
2022/03/07 02:28:45;;;;;;;11.13;7.23;;;;;;;1.50;100.00;94343.88;5051487;28;20241;-76
2022/03/07 02:31:18;;;;;;;12.83;7.57;;;;;;;1.52;100.00;94349.63;5051679;28;20676;-76
2022/03/07 02:33:46;;;;;;;11.33;7.07;;;;;;;1.57;100.00;94344.75;5050730;28;20567;-76
2022/03/07 02:36:14;;;;;;;10.97;6.90;;;;;;;1.65;100.00;94352.38;5051775;28;20242;-76
2022/03/07 02:38:45;;;;;;;13.80;7.47;;;;;;;1.76;100.00;94349.41;5050474;28;20208;-75
2022/03/07 02:41:13;;;;;;;12.03;7.77;;;;;;;1.76;100.00;94349.41;5051766;28;20673;-75
2022/03/07 02:43:42;;;;;;;13.27;7.50;;;;;;;1.71;100.00;94344.03;5050698;28;20264;-74
2022/03/07 02:46:10;;;;;;;11.23;7.23;;;;;;;1.71;100.00;94349.94;5051381;28;20248;-75
2022/03/07 02:48:39;;;;;;;12.93;7.63;;;;;;;1.80;100.00;94347.31;5050520;28;20201;-75
2022/03/07 02:51:08;;;;;;;12.40;7.57;;;;;;;1.81;100.00;94346.34;5051210;28;20582;-75
2022/03/07 02:53:37;;;;;;;11.30;7.50;;;;;;;1.82;100.00;94356.41;5050233;28;20301;-74
2022/03/07 02:56:07;;;;;;;12.67;7.43;;;;;;;1.86;100.00;94354.31;5051911;28;20297;-74
2022/03/07 02:58:35;;;;;;;12.50;7.50;;;;;;;1.93;100.00;94363.72;5050729;28;20271;-75
2022/03/07 03:01:03;;;;;;;11.70;7.60;;;;;;;1.86;100.00;94355.13;5051544;28;20615;-74
2022/03/07 03:03:33;;;;;;;12.73;8.00;;;;;;;1.82;100.00;94350.53;5049932;28;20631;-74
2022/03/07 03:06:03;;;;;;;11.93;7.90;;;;;;;1.81;100.00;94359.16;5050930;28;20227;-74
2022/03/07 03:08:32;;;;;;;13.27;7.83;;;;;;;1.70;100.00;94358.59;5049498;28;20205;-74
2022/03/07 03:11:01;;;;;;;12.33;7.20;;;;;;;1.81;100.00;94365.09;5051342;28;20204;-74
2022/03/07 03:13:31;;;;;;;15.07;8.10;;;;;;;1.85;100.00;94361.19;5049138;28;20234;-74
2022/03/07 03:15:58;;;;;;;11.83;7.37;;;;;;;1.89;100.00;94366.78;5050239;28;20196;-74
2022/03/07 03:18:27;;;;;;;11.60;7.00;;;;;;;1.88;100.00;94360.84;5049157;28;20212;-75
2022/03/07 03:20:56;;;;;;;10.40;6.77;;;;;;;1.90;100.00;94364.06;5044385;28;20219;-76
2022/03/07 03:23:24;;;;;;;16.10;7.13;;;;;;;1.83;100.00;94370.03;5047513;28;20214;-75
2022/03/07 03:25:52;;;;;;;11.03;7.27;;;;;;;1.82;100.00;94366.66;5044011;28;20228;-75
2022/03/07 03:28:23;;;;;;;11.63;7.23;;;;;;;1.77;100.00;94366.38;5046982;28;20205;-74
2022/03/07 03:30:53;;;;;;;10.00;6.63;;;;;;;1.77;100.00;94357.91;5043815;28;20270;-74
2022/03/07 03:33:21;;;;;;;11.20;6.83;;;;;;;1.79;100.00;94369.56;5048779;28;20221;-74
2022/03/07 03:35:50;;;;;;;11.67;6.90;;;;;;;1.85;100.00;94363.75;5050241;28;20203;-74
2022/03/07 03:38:18;;;;;;;11.70;7.03;;;;;;;1.80;100.00;94363.47;5049783;28;20227;-75
2022/03/07 03:40:45;;;;;;;12.27;7.60;;;;;;;1.76;100.00;94372.47;5049517;28;20684;-76
2022/03/07 03:43:14;;;;;;;10.77;6.87;;;;;;;1.80;100.00;94363.47;5050305;28;20205;-74
2022/03/07 03:45:43;;;;;;;11.33;7.03;;;;;;;1.84;100.00;94367.31;5049801;28;20218;-75
2022/03/07 03:48:13;;;;;;;8.70;5.97;;;;;;;1.73;100.00;94360.81;5050724;28;20225;-76
2022/03/07 03:50:41;;;;;;;11.70;6.53;;;;;;;1.74;100.00;94366.72;5050026;28;20213;-75
2022/03/07 03:53:10;;;;;;;12.33;6.97;;;;;;;1.72;100.00;94366.13;5049921;28;20206;-75
2022/03/07 03:55:38;;;;;;;10.57;6.33;;;;;;;1.73;100.00;94372.84;5049649;28;20310;-75
2022/03/07 03:58:07;;;;;;;9.70;6.37;;;;;;;1.73;100.00;94368.50;5049343;28;20207;-75
2022/03/07 04:00:35;;;;;;;10.60;6.80;;;;;;;1.76;100.00;94369.13;5049004;28;20256;-74
2022/03/07 04:03:04;;;;;;;10.87;6.50;;;;;;;1.82;100.00;94382.03;5049866;28;20580;-74
2022/03/07 04:05:33;;;;;;;10.50;7.00;;;;;;;1.79;100.00;94368.78;5049102;28;20202;-74
2022/03/07 04:08:02;;;;;;;10.53;6.77;;;;;;;1.79;100.00;94371.34;5049800;28;20215;-74
2022/03/07 04:10:30;;;;;;;9.50;6.10;;;;;;;1.82;100.00;94366.66;5049258;28;20211;-74
2022/03/07 04:12:58;;;;;;;10.03;6.90;;;;;;;1.80;100.00;94368.59;5049449;28;20700;-73
2022/03/07 04:15:30;;;;;;;12.20;6.83;;;;;;;1.82;100.00;94371.78;5049242;28;20205;-74
2022/03/07 04:17:58;;;;;;;13.40;7.50;;;;;;;1.85;100.00;94376.56;5049992;28;20209;-74
2022/03/07 04:20:26;;;;;;;12.30;7.40;;;;;;;1.93;100.00;94370.59;5049161;28;20711;-75
2022/03/07 04:22:56;;;;;;;13.30;6.97;;;;;;;1.90;100.00;94373.50;5049000;28;20294;-74
2022/03/07 04:25:26;;;;;;;13.47;8.10;;;;;;;1.94;100.00;94379.88;5049609;28;20236;-74
2022/03/07 04:27:54;;;;;;;11.63;7.67;;;;;;;1.89;100.00;94371.91;5049681;28;20198;-75
2022/03/07 04:30:22;;;;;;;14.77;8.27;;;;;;;1.84;100.00;94379.31;5048832;28;20238;-77
2022/03/07 04:32:50;;;;;;;14.53;8.43;;;;;;;1.89;100.00;94382.94;5049293;28;20198;-76
2022/03/07 04:35:19;;;;;;;16.17;8.70;;;;;;;1.85;100.00;94376.56;5049135;28;20194;-75
2022/03/07 04:37:47;;;;;;;12.23;8.33;;;;;;;1.88;100.00;94381.34;5048676;28;20205;-76
2022/03/07 04:40:19;;;;;;;13.60;8.47;;;;;;;1.90;100.00;94381.19;5049236;28;20194;-72
2022/03/07 04:42:48;;;;;;;13.90;8.87;;;;;;;1.90;100.00;94379.44;5049011;28;20281;-72
2022/03/07 04:45:16;;;;;;;13.13;8.50;;;;;;;1.89;100.00;94379.59;5048943;28;20208;-73
2022/03/07 04:47:45;;;;;;;14.80;8.53;;;;;;;1.88;100.00;94383.91;5048649;28;20228;-71
2022/03/07 04:50:14;;;;;;;15.40;9.20;;;;;;;1.85;100.00;94365.56;5049263;28;20287;-72
2022/03/07 04:52:43;;;;;;;14.53;9.57;;;;;;;1.93;100.00;94373.97;5047855;28;20676;-72
2022/03/07 04:55:12;;;;;;;12.93;8.90;;;;;;;1.91;100.00;94381.00;5048883;28;20215;-72
2022/03/07 04:57:43;;;;;;;13.03;8.50;;;;;;;1.90;100.00;94378.63;5049104;28;20825;-71
2022/03/07 05:00:14;;;;;;;14.07;8.70;;;;;;;1.98;100.00;94384.50;5048679;28;20202;-72
2022/03/07 05:02:42;;;;;;;14.83;9.77;;;;;;;1.90;100.00;94384.56;5047862;28;20205;-71
2022/03/07 05:05:10;;;;;;;13.47;9.00;;;;;;;1.82;100.00;94371.78;5048875;28;20663;-72
2022/03/07 05:07:40;;;;;;;11.07;7.30;;;;;;;1.82;100.00;94386.38;5047757;28;20286;-72
2022/03/07 05:10:08;;;;;;;12.80;7.40;;;;;;;1.85;100.00;94378.34;5045396;28;20219;-71
2022/03/07 05:12:35;;;;;;;11.83;7.17;;;;;;;1.79;100.00;94386.72;5049492;28;20234;-72
2022/03/07 05:15:06;;;;;;;10.73;7.40;;;;;;;1.72;100.00;94391.72;5050443;28;20625;-72
2022/03/07 05:17:41;;;;;;;11.40;6.70;;;;;;;1.75;100.00;94382.91;5050856;28;20215;-72
2022/03/07 05:20:11;;;;;;;9.50;6.50;;;;;;;1.76;100.00;94384.50;5050239;28;20202;-73
2022/03/07 05:22:40;;;;;;;9.30;6.23;;;;;;;1.69;100.00;94382.63;5032376;28;20292;-73
2022/03/07 05:25:09;;;;;;;12.57;6.47;;;;;;;1.60;100.00;94393.06;5049714;28;20858;-72
2022/03/07 05:27:38;;;;;;;10.17;6.23;;;;;;;1.49;100.00;94391.72;5050177;28;20221;-72
2022/03/07 05:30:10;;;;;;;8.57;6.03;;;;;;;1.45;100.00;94387.06;5048855;28;20206;-73
2022/03/07 05:32:37;;;;;;;10.03;6.37;;;;;;;1.51;100.00;94378.72;5049632;28;20237;-73
2022/03/07 05:35:06;;;;;;;9.90;6.50;;;;;;;1.48;100.00;94386.75;5050225;28;20262;-74
2022/03/07 05:37:34;;;;;;;12.67;6.70;;;;;;;1.57;100.00;94385.72;5050123;28;20632;-74
2022/03/07 05:40:06;;;;;;;11.07;7.10;;;;;;;1.49;100.00;94390.91;5049845;28;20240;-72
2022/03/07 05:42:34;;;;;;;12.20;6.53;;;;;;;1.49;100.00;94383.22;5050155;28;20209;-73
2022/03/07 05:45:02;;;;;;;9.17;6.57;;;;;;;1.57;100.00;94395.97;5050317;28;20209;-72
2022/03/07 05:47:31;;;;;;;11.23;7.10;;;;;;;1.62;100.00;94391.13;5049961;28;20283;-72
2022/03/07 05:49:59;;;;;;;10.27;5.97;;;;;;;1.56;100.00;94390.06;5049249;28;20207;-73
2022/03/07 05:52:28;;;;;;;10.90;7.10;;;;;;;1.56;100.00;94392.59;5049567;28;20636;-73
2022/03/07 05:54:56;;;;;;;10.47;6.93;;;;;;;1.53;100.00;94389.63;5049262;28;20230;-72
2022/03/07 05:57:25;;;;;;;9.07;6.37;;;;;;;1.58;100.00;94392.47;5049995;28;20666;-72
2022/03/07 05:59:53;;;;;;;13.30;7.10;;;;;;;1.56;100.00;94389.25;5049845;28;20200;-73
2022/03/07 06:02:22;;;;;;;12.23;6.30;;;;;;;1.58;100.00;94395.00;5047931;28;20675;-72
2022/03/07 06:04:53;;;;;;;10.73;6.57;;;;;;;1.49;100.00;94394.28;5046659;28;20291;-72
2022/03/07 06:07:21;;;;;;;8.93;5.83;;;;;;;1.47;100.00;94392.84;5049767;28;20251;-76
2022/03/07 06:09:49;;;;;;;10.53;6.40;;;;;;;1.46;100.00;94389.50;5049311;28;20208;-73
2022/03/07 06:12:17;;;;;;;9.73;6.50;;;;;;;1.43;100.00;94394.94;5049595;28;20373;-73
2022/03/07 06:14:45;;;;;;;9.17;6.97;;;;;;;1.51;100.00;94387.22;5049460;28;20207;-72
2022/03/07 06:17:13;;;;;;;11.47;6.23;;;;;;;1.57;100.00;94395.97;5049691;28;20579;-72
2022/03/07 06:19:41;;;;;;;10.10;6.70;;;;;;;1.54;100.00;94393.75;5049716;28;20213;-73
2022/03/07 06:22:11;;;;;;;12.10;6.70;;;;;;;1.63;100.00;94396.09;5047665;28;20654;-72
2022/03/07 06:24:38;;;;;;;13.67;8.83;;;;;;;1.70;100.00;94391.09;5049504;28;20594;-73
2022/03/07 06:27:07;;;;;;;19.40;10.17;;;;;;;1.68;100.00;94396.38;5049804;28;20232;-72
2022/03/07 06:29:35;;;;;;;14.13;8.27;;;;;;;1.56;100.00;94394.38;5049560;28;20280;-71
2022/03/07 06:32:04;;;;;;;11.40;6.83;;;;;;;1.49;100.00;94396.84;5049245;28;20214;-71
2022/03/07 06:34:33;;;;;;;9.33;6.20;;;;;;;1.51;100.00;94394.09;5049556;28;20212;-72
2022/03/07 06:37:01;;;;;;;9.90;6.00;;;;;;;1.59;100.00;94406.84;5049539;28;20204;-71
2022/03/07 06:39:32;;;;;;;8.97;5.83;;;;;;;1.45;100.00;94398.13;5049175;28;20206;-71
2022/03/07 06:42:00;;;;;;;11.80;6.87;;;;;;;1.57;100.00;94398.53;5049599;28;20209;-72
2022/03/07 06:44:29;;;;;;;10.57;6.60;;;;;;;1.61;100.00;94397.25;5050555;28;20706;-71
2022/03/07 06:46:57;;;;;;;12.97;7.17;;;;;;;1.60;100.00;94395.63;5052958;28;20223;-70
2022/03/07 06:49:25;;;;;;;11.10;6.90;;;;;;;1.68;100.00;94396.38;5052552;28;20209;-72
2022/03/07 06:51:54;;;;;;;11.37;7.57;;;;;;;1.73;100.00;94398.44;5052740;28;20206;-72
2022/03/07 06:54:22;;;;;;;11.80;7.47;;;;;;;1.84;100.00;94395.47;5052824;28;20209;-72
2022/03/07 06:56:52;;;;;;;11.93;8.13;;;;;;;1.88;100.00;94394.16;5052589;28;20225;-72
2022/03/07 06:59:20;;;;;;;9.53;6.97;;;;;;;1.93;100.00;94399.59;5053702;28;20291;-71
2022/03/07 07:01:47;;;;;;;13.63;8.57;;;;;;;1.90;100.00;94399.94;5051856;28;20195;-71
2022/03/07 07:04:17;;;;;;;12.63;8.30;;;;;;;1.95;100.00;94397.63;5050885;28;20198;-71
2022/03/07 07:06:45;;;;;;;14.03;8.87;;;;;;;2.01;100.00;94396.97;5052509;28;20236;-71
2022/03/07 07:09:13;;;;;;;12.93;8.80;;;;;;;2.02;100.00;94402.88;5044726;28;20213;-72
2022/03/07 07:11:41;;;;;;;14.23;8.97;;;;;;;2.05;100.00;94403.31;5051232;28;20643;-73
2022/03/07 07:14:11;;;;;;;17.30;10.40;;;;;;;2.09;100.00;94406.34;5052272;28;20237;-72
2022/03/07 07:16:39;;;;;;;16.03;8.70;;;;;;;2.01;100.00;94399.50;5051244;28;20629;-72
2022/03/07 07:19:06;;;;;;;14.90;8.73;;;;;;;2.08;100.00;94405.53;5051801;28;20267;-72
2022/03/07 07:21:34;;;;;;;12.60;8.33;;;;;;;2.04;100.00;94403.50;5050061;28;20205;-72
2022/03/07 07:24:02;;;;;;;16.57;9.50;;;;;;;2.10;100.00;94408.75;5051122;28;20723;-71
2022/03/07 07:26:30;;;;;;;15.97;9.37;;;;;;;2.11;100.00;94410.31;5050465;28;20224;-71
2022/03/07 07:28:59;;;;;;;14.90;9.10;;;;;;;2.07;100.00;94406.53;5049765;28;20821;-71
2022/03/07 07:31:28;;;;;;;11.47;8.03;;;;;;;2.08;100.00;94410.66;5051580;28;20248;-73
2022/03/07 07:33:56;;;;;;;14.53;8.73;;;;;;;2.11;100.00;94414.63;5044573;28;20215;-72
2022/03/07 07:36:24;;;;;;;15.50;9.17;;;;;;;2.14;100.00;94414.28;5044744;28;20229;-72
2022/03/07 07:38:52;;;;;;;22.87;10.30;;;;;;;2.22;100.00;94409.13;5041336;28;20193;-73
2022/03/07 07:41:19;;;;;;;19.73;10.27;;;;;;;2.23;100.00;94413.25;5050302;28;20203;-73
2022/03/07 07:43:49;;;;;;;21.93;11.03;;;;;;;2.20;100.00;94419.53;5051646;28;20237;-86
2022/03/07 07:46:16;;;;;;;17.47;10.77;;;;;;;2.20;100.00;94419.53;5048831;28;20201;-83
2022/03/07 07:48:46;;;;;;;22.30;11.73;;;;;;;2.16;100.00;94423.44;5052600;28;20245;-81
2022/03/07 07:51:13;;;;;;;22.83;13.00;;;;;;;2.19;100.00;94425.63;5050890;28;20213;-79
2022/03/07 07:53:41;;;;;;;20.13;13.07;;;;;;;2.24;100.00;94427.69;5047656;28;20198;-80
2022/03/07 07:56:09;;;;;;;25.70;14.63;;;;;;;2.20;100.00;94424.66;5049196;28;20209;-80
2022/03/07 07:58:37;;;;;;;22.70;14.87;;;;;;;2.25;100.00;94430.06;5050282;28;20746;-80
2022/03/07 08:01:05;;;;;;;22.43;14.27;;;;;;;2.20;100.00;94409.28;5050116;28;20256;-80
2022/03/07 08:03:32;;;;;;;27.00;14.80;;;;;;;2.35;100.00;94423.91;5051468;28;20281;-82
2022/03/07 08:06:01;;;;;;;24.00;13.67;;;;;;;2.47;100.00;94425.06;5051874;28;20239;-81
2022/03/07 08:08:29;;;;;;;21.30;13.60;;;;;;;2.42;100.00;94430.75;5051655;28;20235;-80
2022/03/07 08:10:57;;;;;;;24.03;12.70;;;;;;;2.47;100.00;94423.31;5051319;28;20288;-81
2022/03/07 08:13:24;;;;;;;26.67;13.90;;;;;;;2.42;100.00;94433.31;5051217;28;20229;-80
2022/03/07 08:15:53;;;;;;;20.57;12.73;;;;;;;2.43;100.00;94426.38;5051561;28;20208;-80
2022/03/07 08:18:20;;;;;;;23.87;14.03;;;;;;;2.45;100.00;94432.16;5051660;28;20202;-79
2022/03/07 08:20:49;;;;;;;19.00;11.93;;;;;;;2.51;100.00;94434.03;5051576;28;20213;-80
2022/03/07 08:23:18;;;;;;;20.40;11.83;;;;;;;2.47;100.00;94435.34;5051593;28;20205;-80
2022/03/07 08:25:45;;;;;;;21.87;13.73;;;;;;;2.44;100.00;94433.91;5052086;28;20217;-80
2022/03/07 08:28:12;;;;;;;20.50;12.60;;;;;;;2.46;100.00;94439.66;5050531;28;20321;-80
2022/03/07 08:30:39;;;;;;;21.40;12.87;;;;;;;2.45;100.00;94437.28;5045280;28;20198;-80
2022/03/07 08:33:06;;;;;;;20.83;12.10;;;;;;;2.50;100.00;94437.56;5051276;28;20202;-81
2022/03/07 08:35:34;;;;;;;20.73;12.47;;;;;;;2.50;100.00;94435.78;5051407;28;20197;-80
2022/03/07 08:38:02;;;;;;;17.70;10.87;;;;;;;2.53;100.00;94443.13;5049822;28;20205;-82
2022/03/07 08:40:34;;;;;;;16.23;9.70;;;;;;;2.53;100.00;94439.78;5050140;28;20198;-80
2022/03/07 08:43:03;;;;;;;14.23;9.13;;;;;;;2.47;100.00;94437.91;5050484;28;20240;-80
2022/03/07 08:45:30;;;;;;;13.43;8.60;;;;;;;2.52;100.00;94443.28;5050367;28;20807;-80
2022/03/07 08:47:57;;;;;;;14.17;9.10;;;;;;;2.53;100.00;94452.59;5044661;28;20229;-80
2022/03/07 08:50:28;;;;;;;15.40;9.07;;;;;;;2.54;100.00;94447.28;5050682;28;20609;-80
2022/03/07 08:52:55;;;;;;;14.60;8.80;;;;;;;2.50;100.00;94448.63;5049695;28;20255;-83
2022/03/07 08:55:23;;;;;;;14.60;9.20;;;;;;;2.57;100.00;94448.72;5050040;28;20722;-79
2022/03/07 08:57:51;;;;;;;17.00;9.63;;;;;;;2.68;100.00;94449.09;5051407;28;20585;-81
2022/03/07 09:00:19;;;;;;;14.67;9.33;;;;;;;2.79;100.00;94448.66;5045671;28;20277;-80
2022/03/07 09:02:48;;;;;;;14.73;9.27;;;;;;;2.80;100.00;94446.88;5045744;28;20206;-80
2022/03/07 09:05:16;;;;;;;16.33;9.57;;;;;;;2.77;100.00;94448.03;5051560;28;20201;-79
2022/03/07 09:07:45;;;;;;;18.03;11.37;;;;;;;2.79;100.00;94447.84;5050323;28;20233;-80
2022/03/07 09:10:13;;;;;;;18.03;10.10;;;;;;;2.82;100.00;94448.31;5051196;28;20275;-80
2022/03/07 09:12:40;;;;;;;15.97;9.07;;;;;;;2.91;100.00;94453.34;5050267;28;20716;-81
2022/03/07 09:15:11;;;;;;;14.63;9.43;;;;;;;3.00;100.00;94447.94;5038375;28;20577;-81
2022/03/07 09:17:39;;;;;;;20.70;10.40;;;;;;;3.00;100.00;94457.44;5050643;28;20550;-80
2022/03/07 09:20:09;;;;;;;18.83;10.20;;;;;;;2.93;100.00;94444.50;5051031;28;20206;-80
2022/03/07 09:22:36;;;;;;;17.23;9.53;;;;;;;3.02;100.00;94451.16;5049930;28;20202;-80
2022/03/07 09:25:06;;;;;;;18.03;10.27;;;;;;;3.02;100.00;94450.34;5051162;28;20213;-81
2022/03/07 09:27:35;;;;;;;14.83;9.37;;;;;;;2.99;100.00;94440.44;5051077;28;20222;-83
2022/03/07 09:30:03;;;;;;;17.17;9.97;;;;;;;2.97;100.00;94443.19;5050647;28;20557;-80
2022/03/07 09:32:32;;;;;;;18.17;9.13;;;;;;;3.01;100.00;94446.19;5050925;28;20206;-80
2022/03/07 09:34:59;;;;;;;14.00;9.17;;;;;;;3.04;100.00;94438.13;5049776;28;20238;-77
2022/03/07 09:37:28;;;;;;;15.93;8.93;;;;;;;3.08;100.00;94440.19;5049554;28;20620;-75
2022/03/07 09:39:57;;;;;;;13.70;8.63;;;;;;;3.06;100.00;94439.53;5050092;28;20209;-76
2022/03/07 09:42:24;;;;;;;14.23;8.77;;;;;;;3.11;100.00;94433.88;5049670;28;20202;-76
2022/03/07 09:44:54;;;;;;;15.23;8.33;;;;;;;3.14;100.00;94439.47;5050709;28;20205;-79
2022/03/07 09:47:23;;;;;;;12.13;7.47;;;;;;;3.16;100.00;94434.16;5050390;28;20316;-78
2022/03/07 09:49:53;;;;;;;12.83;7.67;;;;;;;3.17;100.00;94438.31;5050379;28;20724;-77
2022/03/07 09:52:22;;;;;;;10.23;7.53;;;;;;;3.14;100.00;94442.03;5050466;28;20199;-79
2022/03/07 09:54:50;;;;;;;10.93;6.93;;;;;;;3.16;100.00;94418.75;5050413;28;20205;-79
2022/03/07 09:57:18;;;;;;;13.87;7.83;;;;;;;3.22;100.00;94429.09;5050526;28;20283;-80
2022/03/07 09:59:46;;;;;;;12.47;8.17;;;;;;;3.35;100.00;94426.69;5050728;28;20681;-79
2022/03/07 10:02:19;;;;;;;9.50;7.43;;;;;;;3.39;100.00;94437.41;5049708;28;20284;-79
2022/03/07 10:04:47;;;;;;;13.27;8.00;;;;;;;3.42;100.00;94439.63;5050270;28;20707;-80
2022/03/07 10:07:17;;;;;;;13.87;8.07;;;;;;;3.38;100.00;94441.72;5049449;28;20205;-79
2022/03/07 10:09:46;;;;;;;14.27;7.73;;;;;;;3.37;100.00;94432.47;5049286;28;20206;-79
2022/03/07 10:12:15;;;;;;;13.07;7.67;;;;;;;3.42;100.00;94437.84;5041406;28;20202;-77
2022/03/07 10:14:45;;;;;;;12.70;7.97;;;;;;;3.49;100.00;94442.28;5042512;28;20752;-79
2022/03/07 10:17:21;;;;;;;11.97;7.87;;;;;;;3.41;100.00;94453.41;5049037;28;20210;-78
2022/03/07 10:19:50;;;;;;;16.53;8.80;;;;;;;3.47;100.00;94446.75;5053317;28;20194;-79
2022/03/07 10:22:23;;;;;;;11.00;7.33;;;;;;;3.35;100.00;94443.84;5050976;28;20292;-79
2022/03/07 10:24:59;;;;;;;12.03;7.43;;;;;;;3.38;100.00;94439.16;5048315;28;20198;-80
2022/03/07 10:27:28;;;;;;;12.03;7.23;;;;;;;3.41;100.00;94436.25;5052907;28;20197;-79
2022/03/07 10:29:56;;;;;;;11.27;6.77;;;;;;;3.42;100.00;94427.56;5052949;28;20198;-79
2022/03/07 10:32:24;;;;;;;10.67;6.83;;;;;;;3.40;100.00;94439.81;5052527;28;20305;-80
2022/03/07 10:34:51;;;;;;;10.20;6.87;;;;;;;3.40;100.00;94437.25;5052623;28;20252;-79
2022/03/07 10:37:32;;;;;;;10.17;6.80;;;;;;;3.40;100.00;94439.81;5052400;28;20379;-79
2022/03/07 10:39:59;;;;;;;14.33;7.90;;;;;;;3.37;100.00;94427.31;5052841;28;20201;-80
2022/03/07 10:42:28;;;;;;;17.37;9.00;;;;;;;3.45;100.00;94434.13;5045706;28;20210;-80
2022/03/07 10:45:04;;;;;;;14.13;8.47;;;;;;;3.46;100.00;94430.59;5049181;28;20210;-79
2022/03/07 10:47:32;;;;;;;13.87;8.50;;;;;;;3.57;100.00;94439.59;5050367;28;20635;-79
2022/03/07 10:50:00;;;;;;;14.33;9.00;;;;;;;3.57;100.00;94437.03;5045623;28;20422;-78
2022/03/07 10:52:40;;;;;;;16.50;8.90;;;;;;;3.59;100.00;94438.44;5052277;28;20221;-79
2022/03/07 10:55:12;;;;;;;15.37;8.83;;;;;;;3.60;100.00;94431.53;5045734;28;20700;-79
2022/03/07 10:57:41;;;;;;;12.30;8.10;;;;;;;3.66;100.00;94430.81;5046838;28;20558;-80
2022/03/07 11:00:12;;;;;;;12.47;8.13;;;;;;;3.69;100.00;94431.25;5051864;28;20202;-79
2022/03/07 11:02:41;;;;;;;13.13;7.57;;;;;;;3.66;100.00;94426.47;5052075;28;20248;-79
2022/03/07 11:05:12;;;;;;;13.77;8.07;;;;;;;3.68;100.00;94419.38;5052716;28;20679;-79
2022/03/07 11:07:43;;;;;;;16.53;8.30;;;;;;;3.72;100.00;94422.38;5052248;28;20661;-79
2022/03/07 11:10:13;;;;;;;15.93;9.67;;;;;;;3.74;100.00;94422.97;5045481;28;20194;-78
2022/03/07 11:12:42;;;;;;;15.77;10.03;;;;;;;3.78;100.00;94422.41;5051878;28;20234;-78
2022/03/07 11:15:14;;;;;;;14.57;9.13;;;;;;;3.76;100.00;94415.88;5052077;28;20202;-79
2022/03/07 11:17:43;;;;;;;14.97;8.97;;;;;;;3.76;100.00;94426.16;5052068;28;20540;-79
2022/03/07 11:20:18;;;;;;;19.20;11.10;;;;;;;3.77;100.00;94417.47;5051317;28;20202;-79
2022/03/07 11:22:47;;;;;;;19.87;11.33;;;;;;;3.73;100.00;94429.09;5050731;28;20201;-79
2022/03/07 11:25:16;;;;;;;19.10;11.20;;;;;;;3.72;100.00;94423.13;5052787;28;20206;-79
2022/03/07 11:27:44;;;;;;;17.80;10.63;;;;;;;3.76;100.00;94421.81;5051895;28;20704;-79
2022/03/07 11:30:20;;;;;;;19.10;11.60;;;;;;;3.76;100.00;94415.88;5045415;28;20210;-80